Unionville, Maryland
Current Conditions -  °F | °C
As of 11:35 PM on Friday 24 Oct 2014 (Local Time) from KFDK Reporting Station
Clear Clear  
Wind Chill: 50°   Ceiling: Unl
Heat Index: 50°   Visibility: 10mi
Dew Point: 39°   Wind: 0mph
Humidity: 66%   Direction: NA
Pressure: 29.99"   Gusts: NA
Location:  39.47°N, 77.18°W
Report Text: KFDK 250335Z AUTO 00000KT 10SM CLR 10/04 A2999 RMK AO2 LTG DSNT E
Loading
Personal Weather Stations






























Interactive Weather Map
Tropical Storm Tracking
New forecast layout! Learn more

10-Day Weather Forecast

Advertisements
Track Severe Weather on mobile